sensor_id;sensor_type;location;lat;lon;timestamp;P1;durP1;ratioP1;P2;durP2;ratioP2
41255;SDS011;26989;45.524;10.938;2023-04-15T00:01:59;5.00;;;3.38;;
41255;SDS011;26989;45.524;10.938;2023-04-15T00:04:26;5.38;;;3.53;;
41255;SDS011;26989;45.524;10.938;2023-04-15T00:06:53;5.80;;;3.80;;
41255;SDS011;26989;45.524;10.938;2023-04-15T00:09:20;5.20;;;3.60;;
41255;SDS011;26989;45.524;10.938;2023-04-15T00:11:48;5.55;;;3.55;;
41255;SDS011;26989;45.524;10.938;2023-04-15T00:14:16;6.00;;;4.03;;
41255;SDS011;26989;45.524;10.938;2023-04-15T00:16:42;4.60;;;3.55;;
41255;SDS011;26989;45.524;10.938;2023-04-15T00:19:09;5.20;;;3.47;;
41255;SDS011;26989;45.524;10.938;2023-04-15T00:21:37;5.75;;;3.50;;
41255;SDS011;26989;45.524;10.938;2023-04-15T00:24:04;4.38;;;2.63;;
41255;SDS011;26989;45.524;10.938;2023-04-15T00:26:31;4.38;;;2.80;;
41255;SDS011;26989;45.524;10.938;2023-04-15T00:28:58;4.57;;;2.65;;
41255;SDS011;26989;45.524;10.938;2023-04-15T00:31:25;3.72;;;2.70;;
41255;SDS011;26989;45.524;10.938;2023-04-15T00:33:52;4.03;;;2.58;;
41255;SDS011;26989;45.524;10.938;2023-04-15T00:36:19;4.15;;;3.00;;
41255;SDS011;26989;45.524;10.938;2023-04-15T00:38:46;5.35;;;2.58;;
41255;SDS011;26989;45.524;10.938;2023-04-15T00:41:13;3.05;;;2.38;;
41255;SDS011;26989;45.524;10.938;2023-04-15T00:43:40;4.82;;;2.40;;
41255;SDS011;26989;45.524;10.938;2023-04-15T00:46:07;3.15;;;1.98;;
41255;SDS011;26989;45.524;10.938;2023-04-15T00:48:35;2.90;;;1.70;;
41255;SDS011;26989;45.524;10.938;2023-04-15T00:51:04;2.28;;;1.30;;
41255;SDS011;26989;45.524;10.938;2023-04-15T00:53:32;2.15;;;1.10;;
41255;SDS011;26989;45.524;10.938;2023-04-15T00:55:58;1.65;;;1.10;;
41255;SDS011;26989;45.524;10.938;2023-04-15T00:58:25;2.80;;;1.23;;
41255;SDS011;26989;45.524;10.938;2023-04-15T01:00:54;1.52;;;0.93;;
41255;SDS011;26989;45.524;10.938;2023-04-15T01:03:21;1.23;;;0.80;;
41255;SDS011;26989;45.524;10.938;2023-04-15T01:05:48;1.73;;;0.98;;
41255;SDS011;26989;45.524;10.938;2023-04-15T01:08:16;1.05;;;0.70;;
41255;SDS011;26989;45.524;10.938;2023-04-15T01:10:43;1.35;;;0.82;;
41255;SDS011;26989;45.524;10.938;2023-04-15T01:13:10;1.85;;;0.80;;
41255;SDS011;26989;45.524;10.938;2023-04-15T01:15:39;3.00;;;1.13;;
41255;SDS011;26989;45.524;10.938;2023-04-15T01:18:09;1.55;;;0.88;;
41255;SDS011;26989;45.524;10.938;2023-04-15T01:20:36;1.42;;;0.80;;
41255;SDS011;26989;45.524;10.938;2023-04-15T01:23:03;0.80;;;0.60;;
41255;SDS011;26989;45.524;10.938;2023-04-15T01:25:30;1.65;;;0.73;;
41255;SDS011;26989;45.524;10.938;2023-04-15T01:27:58;1.20;;;0.70;;
41255;SDS011;26989;45.524;10.938;2023-04-15T01:30:25;1.40;;;0.80;;
41255;SDS011;26989;45.524;10.938;2023-04-15T01:32:52;1.48;;;1.00;;
41255;SDS011;26989;45.524;10.938;2023-04-15T01:35:19;2.22;;;0.52;;
41255;SDS011;26989;45.524;10.938;2023-04-15T01:37:47;0.95;;;0.80;;
41255;SDS011;26989;45.524;10.938;2023-04-15T01:40:15;2.60;;;0.90;;
41255;SDS011;26989;45.524;10.938;2023-04-15T01:42:41;1.25;;;0.60;;
41255;SDS011;26989;45.524;10.938;2023-04-15T01:45:08;1.83;;;0.98;;
41255;SDS011;26989;45.524;10.938;2023-04-15T01:47:36;1.45;;;0.75;;
41255;SDS011;26989;45.524;10.938;2023-04-15T01:50:03;1.10;;;0.73;;
41255;SDS011;26989;45.524;10.938;2023-04-15T01:52:30;3.20;;;1.23;;
41255;SDS011;26989;45.524;10.938;2023-04-15T01:54:57;1.35;;;0.60;;
41255;SDS011;26989;45.524;10.938;2023-04-15T01:57:24;1.38;;;0.98;;
41255;SDS011;26989;45.524;10.938;2023-04-15T01:59:51;1.35;;;0.98;;
41255;SDS011;26989;45.524;10.938;2023-04-15T02:02:18;1.48;;;0.90;;
41255;SDS011;26989;45.524;10.938;2023-04-15T02:04:45;1.52;;;1.02;;
41255;SDS011;26989;45.524;10.938;2023-04-15T02:07:12;1.50;;;1.00;;
41255;SDS011;26989;45.524;10.938;2023-04-15T02:09:39;3.97;;;1.13;;
41255;SDS011;26989;45.524;10.938;2023-04-15T02:12:06;2.50;;;1.20;;
41255;SDS011;26989;45.524;10.938;2023-04-15T02:14:33;2.13;;;1.10;;
41255;SDS011;26989;45.524;10.938;2023-04-15T02:16:59;1.63;;;1.10;;
41255;SDS011;26989;45.524;10.938;2023-04-15T02:19:35;1.65;;;1.20;;
41255;SDS011;26989;45.524;10.938;2023-04-15T02:22:02;2.63;;;1.35;;
41255;SDS011;26989;45.524;10.938;2023-04-15T02:24:29;2.03;;;1.38;;
41255;SDS011;26989;45.524;10.938;2023-04-15T02:26:56;2.20;;;1.25;;
41255;SDS011;26989;45.524;10.938;2023-04-15T02:29:23;3.25;;;1.45;;
41255;SDS011;26989;45.524;10.938;2023-04-15T02:31:50;3.63;;;1.48;;
41255;SDS011;26989;45.524;10.938;2023-04-15T02:34:16;2.90;;;1.50;;
41255;SDS011;26989;45.524;10.938;2023-04-15T02:36:43;2.15;;;1.45;;
41255;SDS011;26989;45.524;10.938;2023-04-15T02:39:12;2.45;;;1.42;;
41255;SDS011;26989;45.524;10.938;2023-04-15T02:41:41;3.90;;;1.45;;
41255;SDS011;26989;45.524;10.938;2023-04-15T02:44:09;3.42;;;1.75;;
41255;SDS011;26989;45.524;10.938;2023-04-15T02:46:38;3.97;;;1.65;;
41255;SDS011;26989;45.524;10.938;2023-04-15T02:49:06;2.17;;;1.50;;
41255;SDS011;26989;45.524;10.938;2023-04-15T02:51:33;2.40;;;1.50;;
41255;SDS011;26989;45.524;10.938;2023-04-15T02:54:00;2.78;;;1.83;;
41255;SDS011;26989;45.524;10.938;2023-04-15T02:56:27;3.28;;;1.30;;
41255;SDS011;26989;45.524;10.938;2023-04-15T02:58:55;2.05;;;1.40;;
41255;SDS011;26989;45.524;10.938;2023-04-15T03:01:22;2.78;;;1.65;;
41255;SDS011;26989;45.524;10.938;2023-04-15T03:03:49;3.03;;;1.63;;
41255;SDS011;26989;45.524;10.938;2023-04-15T03:06:16;2.67;;;1.77;;
41255;SDS011;26989;45.524;10.938;2023-04-15T03:08:43;4.35;;;1.92;;
41255;SDS011;26989;45.524;10.938;2023-04-15T03:11:10;4.20;;;2.08;;
41255;SDS011;26989;45.524;10.938;2023-04-15T03:13:37;3.45;;;1.83;;
41255;SDS011;26989;45.524;10.938;2023-04-15T03:16:07;2.42;;;1.90;;
41255;SDS011;26989;45.524;10.938;2023-04-15T03:18:34;3.03;;;1.77;;
41255;SDS011;26989;45.524;10.938;2023-04-15T03:21:01;3.75;;;1.92;;
41255;SDS011;26989;45.524;10.938;2023-04-15T03:23:29;5.22;;;2.05;;
41255;SDS011;26989;45.524;10.938;2023-04-15T03:25:59;3.92;;;2.15;;
41255;SDS011;26989;45.524;10.938;2023-04-15T03:28:27;4.20;;;1.95;;
41255;SDS011;26989;45.524;10.938;2023-04-15T03:30:55;3.78;;;2.13;;
41255;SDS011;26989;45.524;10.938;2023-04-15T03:33:22;3.78;;;2.03;;
41255;SDS011;26989;45.524;10.938;2023-04-15T03:35:49;5.25;;;2.05;;
41255;SDS011;26989;45.524;10.938;2023-04-15T03:38:17;3.72;;;2.35;;
41255;SDS011;26989;45.524;10.938;2023-04-15T03:40:45;3.42;;;2.50;;
41255;SDS011;26989;45.524;10.938;2023-04-15T03:43:12;5.13;;;3.00;;
41255;SDS011;26989;45.524;10.938;2023-04-15T03:45:39;2.90;;;2.00;;
41255;SDS011;26989;45.524;10.938;2023-04-15T03:48:06;5.05;;;2.63;;
41255;SDS011;26989;45.524;10.938;2023-04-15T03:50:43;4.65;;;2.38;;
41255;SDS011;26989;45.524;10.938;2023-04-15T03:53:10;4.82;;;2.63;;
41255;SDS011;26989;45.524;10.938;2023-04-15T03:55:37;3.08;;;2.22;;
41255;SDS011;26989;45.524;10.938;2023-04-15T03:58:03;4.13;;;2.88;;
41255;SDS011;26989;45.524;10.938;2023-04-15T04:00:30;4.10;;;2.78;;
41255;SDS011;26989;45.524;10.938;2023-04-15T04:02:58;5.68;;;3.15;;
41255;SDS011;26989;45.524;10.938;2023-04-15T04:05:26;4.10;;;2.80;;
41255;SDS011;26989;45.524;10.938;2023-04-15T04:07:52;6.50;;;3.17;;
41255;SDS011;26989;45.524;10.938;2023-04-15T04:10:19;4.07;;;2.15;;
41255;SDS011;26989;45.524;10.938;2023-04-15T04:12:46;4.63;;;2.50;;
41255;SDS011;26989;45.524;10.938;2023-04-15T04:15:13;4.60;;;2.47;;
41255;SDS011;26989;45.524;10.938;2023-04-15T04:17:41;4.05;;;2.38;;
41255;SDS011;26989;45.524;10.938;2023-04-15T04:20:08;3.80;;;2.50;;
41255;SDS011;26989;45.524;10.938;2023-04-15T04:22:38;3.85;;;2.38;;
41255;SDS011;26989;45.524;10.938;2023-04-15T04:25:06;4.68;;;2.70;;
41255;SDS011;26989;45.524;10.938;2023-04-15T04:27:36;3.80;;;2.08;;
41255;SDS011;26989;45.524;10.938;2023-04-15T04:30:04;4.53;;;2.30;;
41255;SDS011;26989;45.524;10.938;2023-04-15T04:32:32;3.67;;;2.22;;
41255;SDS011;26989;45.524;10.938;2023-04-15T04:34:58;4.13;;;1.95;;
41255;SDS011;26989;45.524;10.938;2023-04-15T04:37:25;2.75;;;1.90;;
41255;SDS011;26989;45.524;10.938;2023-04-15T04:39:52;3.53;;;2.40;;
41255;SDS011;26989;45.524;10.938;2023-04-15T04:42:19;3.15;;;2.38;;
41255;SDS011;26989;45.524;10.938;2023-04-15T04:44:46;4.25;;;1.95;;
41255;SDS011;26989;45.524;10.938;2023-04-15T04:47:12;5.63;;;2.30;;
41255;SDS011;26989;45.524;10.938;2023-04-15T04:49:40;4.45;;;2.30;;
41255;SDS011;26989;45.524;10.938;2023-04-15T04:52:07;4.20;;;1.80;;
41255;SDS011;26989;45.524;10.938;2023-04-15T04:54:34;3.50;;;1.60;;
41255;SDS011;26989;45.524;10.938;2023-04-15T04:57:01;3.90;;;1.85;;
41255;SDS011;26989;45.524;10.938;2023-04-15T04:59:28;3.20;;;1.50;;
41255;SDS011;26989;45.524;10.938;2023-04-15T05:01:55;4.93;;;1.73;;
41255;SDS011;26989;45.524;10.938;2023-04-15T05:04:22;3.17;;;1.42;;
41255;SDS011;26989;45.524;10.938;2023-04-15T05:06:50;2.75;;;1.45;;
41255;SDS011;26989;45.524;10.938;2023-04-15T05:09:17;3.90;;;1.52;;
41255;SDS011;26989;45.524;10.938;2023-04-15T05:11:44;3.22;;;1.80;;
41255;SDS011;26989;45.524;10.938;2023-04-15T05:14:11;3.35;;;1.80;;
41255;SDS011;26989;45.524;10.938;2023-04-15T05:16:38;2.40;;;1.23;;
41255;SDS011;26989;45.524;10.938;2023-04-15T05:19:05;4.45;;;1.45;;
41255;SDS011;26989;45.524;10.938;2023-04-15T05:21:32;3.10;;;1.85;;
41255;SDS011;26989;45.524;10.938;2023-04-15T05:23:59;5.78;;;1.88;;
41255;SDS011;26989;45.524;10.938;2023-04-15T05:26:26;2.95;;;1.50;;
41255;SDS011;26989;45.524;10.938;2023-04-15T05:28:53;3.00;;;1.55;;
41255;SDS011;26989;45.524;10.938;2023-04-15T05:31:20;2.35;;;1.20;;
41255;SDS011;26989;45.524;10.938;2023-04-15T05:33:47;4.75;;;1.30;;
41255;SDS011;26989;45.524;10.938;2023-04-15T05:36:14;2.42;;;1.27;;
41255;SDS011;26989;45.524;10.938;2023-04-15T05:38:41;2.30;;;1.52;;
41255;SDS011;26989;45.524;10.938;2023-04-15T05:41:08;2.55;;;1.10;;
41255;SDS011;26989;45.524;10.938;2023-04-15T05:43:35;1.73;;;1.00;;
41255;SDS011;26989;45.524;10.938;2023-04-15T05:46:01;2.42;;;0.98;;
41255;SDS011;26989;45.524;10.938;2023-04-15T05:48:28;3.30;;;1.33;;
41255;SDS011;26989;45.524;10.938;2023-04-15T05:50:55;1.88;;;1.13;;
41255;SDS011;26989;45.524;10.938;2023-04-15T05:53:22;2.22;;;1.45;;
41255;SDS011;26989;45.524;10.938;2023-04-15T05:55:49;3.33;;;1.50;;
41255;SDS011;26989;45.524;10.938;2023-04-15T05:58:16;2.58;;;1.70;;
41255;SDS011;26989;45.524;10.938;2023-04-15T06:00:44;3.33;;;2.13;;
41255;SDS011;26989;45.524;10.938;2023-04-15T06:03:11;5.45;;;2.03;;
41255;SDS011;26989;45.524;10.938;2023-04-15T06:05:38;4.35;;;1.92;;
41255;SDS011;26989;45.524;10.938;2023-04-15T06:08:05;3.38;;;1.95;;
41255;SDS011;26989;45.524;10.938;2023-04-15T06:10:34;6.80;;;1.75;;
41255;SDS011;26989;45.524;10.938;2023-04-15T06:13:02;2.92;;;1.80;;
41255;SDS011;26989;45.524;10.938;2023-04-15T06:15:29;2.97;;;1.92;;
41255;SDS011;26989;45.524;10.938;2023-04-15T06:17:56;3.35;;;1.70;;
41255;SDS011;26989;45.524;10.938;2023-04-15T06:20:23;4.85;;;2.05;;
41255;SDS011;26989;45.524;10.938;2023-04-15T06:22:51;2.95;;;1.92;;
41255;SDS011;26989;45.524;10.938;2023-04-15T06:25:18;3.58;;;2.63;;
41255;SDS011;26989;45.524;10.938;2023-04-15T06:27:45;8.02;;;2.63;;
41255;SDS011;26989;45.524;10.938;2023-04-15T06:30:13;6.68;;;2.83;;
41255;SDS011;26989;45.524;10.938;2023-04-15T06:32:40;4.00;;;2.30;;
41255;SDS011;26989;45.524;10.938;2023-04-15T06:35:07;4.90;;;3.17;;
41255;SDS011;26989;45.524;10.938;2023-04-15T06:37:35;5.03;;;2.95;;
41255;SDS011;26989;45.524;10.938;2023-04-15T06:40:03;3.78;;;2.60;;
41255;SDS011;26989;45.524;10.938;2023-04-15T06:42:30;4.30;;;2.90;;
41255;SDS011;26989;45.524;10.938;2023-04-15T06:44:57;3.58;;;2.38;;
41255;SDS011;26989;45.524;10.938;2023-04-15T06:47:24;3.97;;;2.60;;
41255;SDS011;26989;45.524;10.938;2023-04-15T06:49:51;4.18;;;2.70;;
41255;SDS011;26989;45.524;10.938;2023-04-15T06:52:18;4.38;;;2.63;;
41255;SDS011;26989;45.524;10.938;2023-04-15T06:54:45;5.03;;;3.03;;
41255;SDS011;26989;45.524;10.938;2023-04-15T06:57:13;4.32;;;2.70;;
41255;SDS011;26989;45.524;10.938;2023-04-15T06:59:40;6.63;;;3.15;;
41255;SDS011;26989;45.524;10.938;2023-04-15T07:02:08;4.90;;;2.65;;
41255;SDS011;26989;45.524;10.938;2023-04-15T07:04:39;6.15;;;2.70;;
41255;SDS011;26989;45.524;10.938;2023-04-15T07:07:06;4.47;;;3.13;;
41255;SDS011;26989;45.524;10.938;2023-04-15T07:09:35;5.05;;;3.15;;
41255;SDS011;26989;45.524;10.938;2023-04-15T07:12:03;3.63;;;2.30;;
41255;SDS011;26989;45.524;10.938;2023-04-15T07:14:30;4.90;;;2.50;;
41255;SDS011;26989;45.524;10.938;2023-04-15T07:16:57;3.13;;;2.53;;
41255;SDS011;26989;45.524;10.938;2023-04-15T07:19:25;12.85;;;3.35;;
41255;SDS011;26989;45.524;10.938;2023-04-15T07:21:54;6.25;;;3.28;;
41255;SDS011;26989;45.524;10.938;2023-04-15T07:24:50;4.88;;;2.30;;
41255;SDS011;26989;45.524;10.938;2023-04-15T07:27:22;4.35;;;2.70;;
41255;SDS011;26989;45.524;10.938;2023-04-15T07:29:49;4.05;;;2.58;;
41255;SDS011;26989;45.524;10.938;2023-04-15T07:32:17;5.20;;;3.08;;
41255;SDS011;26989;45.524;10.938;2023-04-15T07:34:44;4.50;;;2.83;;
41255;SDS011;26989;45.524;10.938;2023-04-15T07:37:11;4.95;;;2.80;;
41255;SDS011;26989;45.524;10.938;2023-04-15T07:39:40;5.65;;;2.60;;
41255;SDS011;26989;45.524;10.938;2023-04-15T07:42:07;5.32;;;2.97;;
41255;SDS011;26989;45.524;10.938;2023-04-15T07:44:34;3.72;;;2.35;;
41255;SDS011;26989;45.524;10.938;2023-04-15T07:47:01;7.25;;;2.65;;
41255;SDS011;26989;45.524;10.938;2023-04-15T07:49:33;15.25;;;11.52;;
41255;SDS011;26989;45.524;10.938;2023-04-15T07:52:00;8.50;;;3.30;;
41255;SDS011;26989;45.524;10.938;2023-04-15T07:54:27;4.00;;;2.70;;
41255;SDS011;26989;45.524;10.938;2023-04-15T07:56:56;6.57;;;2.83;;
41255;SDS011;26989;45.524;10.938;2023-04-15T07:59:22;4.95;;;2.95;;
41255;SDS011;26989;45.524;10.938;2023-04-15T08:01:50;9.57;;;2.75;;
41255;SDS011;26989;45.524;10.938;2023-04-15T08:04:18;4.85;;;2.80;;
41255;SDS011;26989;45.524;10.938;2023-04-15T08:06:45;3.90;;;2.75;;
41255;SDS011;26989;45.524;10.938;2023-04-15T08:09:13;6.43;;;2.47;;
41255;SDS011;26989;45.524;10.938;2023-04-15T08:11:41;4.15;;;2.65;;
41255;SDS011;26989;45.524;10.938;2023-04-15T08:14:08;4.40;;;2.47;;
41255;SDS011;26989;45.524;10.938;2023-04-15T08:16:35;4.82;;;2.53;;
41255;SDS011;26989;45.524;10.938;2023-04-15T08:19:02;4.13;;;2.30;;
41255;SDS011;26989;45.524;10.938;2023-04-15T08:21:30;7.88;;;2.70;;
41255;SDS011;26989;45.524;10.938;2023-04-15T08:23:57;5.18;;;2.75;;
41255;SDS011;26989;45.524;10.938;2023-04-15T08:26:29;4.78;;;2.80;;
41255;SDS011;26989;45.524;10.938;2023-04-15T08:28:56;4.95;;;2.55;;
41255;SDS011;26989;45.524;10.938;2023-04-15T08:31:25;6.07;;;2.88;;
41255;SDS011;26989;45.524;10.938;2023-04-15T08:33:52;3.92;;;2.47;;
41255;SDS011;26989;45.524;10.938;2023-04-15T08:36:23;6.47;;;2.92;;
41255;SDS011;26989;45.524;10.938;2023-04-15T08:38:49;5.95;;;3.35;;
41255;SDS011;26989;45.524;10.938;2023-04-15T08:41:19;18.35;;;7.82;;
41255;SDS011;26989;45.524;10.938;2023-04-15T08:43:51;9.35;;;3.95;;
41255;SDS011;26989;45.524;10.938;2023-04-15T08:46:22;5.88;;;3.83;;
41255;SDS011;26989;45.524;10.938;2023-04-15T08:48:49;6.93;;;3.72;;
41255;SDS011;26989;45.524;10.938;2023-04-15T08:51:16;6.72;;;2.90;;
41255;SDS011;26989;45.524;10.938;2023-04-15T08:53:44;4.82;;;3.00;;
41255;SDS011;26989;45.524;10.938;2023-04-15T08:56:13;4.25;;;2.70;;
41255;SDS011;26989;45.524;10.938;2023-04-15T08:58:44;5.15;;;2.78;;
41255;SDS011;26989;45.524;10.938;2023-04-15T09:01:13;6.93;;;3.40;;
41255;SDS011;26989;45.524;10.938;2023-04-15T09:03:41;5.28;;;3.15;;
41255;SDS011;26989;45.524;10.938;2023-04-15T09:06:08;4.70;;;2.95;;
41255;SDS011;26989;45.524;10.938;2023-04-15T09:08:35;7.25;;;3.97;;
41255;SDS011;26989;45.524;10.938;2023-04-15T09:11:02;7.07;;;3.95;;
41255;SDS011;26989;45.524;10.938;2023-04-15T09:13:29;5.40;;;3.22;;
41255;SDS011;26989;45.524;10.938;2023-04-15T09:15:56;6.28;;;4.00;;
41255;SDS011;26989;45.524;10.938;2023-04-15T09:18:30;6.75;;;3.53;;
41255;SDS011;26989;45.524;10.938;2023-04-15T09:21:05;8.88;;;3.15;;
41255;SDS011;26989;45.524;10.938;2023-04-15T09:23:58;5.00;;;3.20;;
41255;SDS011;26989;45.524;10.938;2023-04-15T09:26:31;8.43;;;4.07;;
41255;SDS011;26989;45.524;10.938;2023-04-15T09:29:05;5.78;;;3.67;;
41255;SDS011;26989;45.524;10.938;2023-04-15T09:31:35;7.40;;;3.78;;
41255;SDS011;26989;45.524;10.938;2023-04-15T09:34:02;8.68;;;3.60;;
41255;SDS011;26989;45.524;10.938;2023-04-15T09:36:35;7.43;;;3.70;;
41255;SDS011;26989;45.524;10.938;2023-04-15T09:39:22;8.00;;;4.20;;
41255;SDS011;26989;45.524;10.938;2023-04-15T09:42:05;7.68;;;5.18;;
41255;SDS011;26989;45.524;10.938;2023-04-15T09:44:32;9.05;;;5.93;;
41255;SDS011;26989;45.524;10.938;2023-04-15T09:46:59;5.95;;;3.20;;
41255;SDS011;26989;45.524;10.938;2023-04-15T09:49:32;6.38;;;3.20;;
41255;SDS011;26989;45.524;10.938;2023-04-15T09:52:00;6.07;;;3.40;;
41255;SDS011;26989;45.524;10.938;2023-04-15T09:54:32;4.88;;;2.90;;
41255;SDS011;26989;45.524;10.938;2023-04-15T09:57:04;6.63;;;3.45;;
41255;SDS011;26989;45.524;10.938;2023-04-15T09:59:33;6.13;;;3.63;;
41255;SDS011;26989;45.524;10.938;2023-04-15T10:02:01;5.35;;;3.13;;
41255;SDS011;26989;45.524;10.938;2023-04-15T10:04:31;5.38;;;3.60;;
41255;SDS011;26989;45.524;10.938;2023-04-15T10:07:02;6.10;;;3.25;;
41255;SDS011;26989;45.524;10.938;2023-04-15T10:09:31;5.70;;;3.47;;
41255;SDS011;26989;45.524;10.938;2023-04-15T10:12:00;6.38;;;3.58;;
41255;SDS011;26989;45.524;10.938;2023-04-15T10:14:30;6.63;;;3.17;;
41255;SDS011;26989;45.524;10.938;2023-04-15T10:17:02;4.63;;;3.30;;
41255;SDS011;26989;45.524;10.938;2023-04-15T10:19:30;5.40;;;3.07;;
41255;SDS011;26989;45.524;10.938;2023-04-15T10:22:02;5.05;;;2.90;;
41255;SDS011;26989;45.524;10.938;2023-04-15T10:24:31;4.93;;;3.20;;
41255;SDS011;26989;45.524;10.938;2023-04-15T10:26:59;5.70;;;3.10;;
41255;SDS011;26989;45.524;10.938;2023-04-15T10:29:27;5.35;;;3.25;;
41255;SDS011;26989;45.524;10.938;2023-04-15T10:31:54;7.97;;;3.15;;
41255;SDS011;26989;45.524;10.938;2023-04-15T10:34:22;5.05;;;3.08;;
41255;SDS011;26989;45.524;10.938;2023-04-15T10:36:50;4.43;;;2.92;;
41255;SDS011;26989;45.524;10.938;2023-04-15T10:39:41;3.63;;;3.20;;
41255;SDS011;26989;45.524;10.938;2023-04-15T10:42:09;3.95;;;2.78;;
41255;SDS011;26989;45.524;10.938;2023-04-15T10:44:37;5.47;;;3.10;;
41255;SDS011;26989;45.524;10.938;2023-04-15T10:49:58;9.20;;;3.55;;
41255;SDS011;26989;45.524;10.938;2023-04-15T10:52:27;7.35;;;3.55;;
41255;SDS011;26989;45.524;10.938;2023-04-15T10:57:39;3.72;;;3.13;;
41255;SDS011;26989;45.524;10.938;2023-04-15T11:02:52;4.07;;;2.80;;
41255;SDS011;26989;45.524;10.938;2023-04-15T11:08:07;5.07;;;2.85;;
41255;SDS011;26989;45.524;10.938;2023-04-15T11:13:03;5.07;;;3.15;;
41255;SDS011;26989;45.524;10.938;2023-04-15T11:15:32;5.78;;;3.00;;
41255;SDS011;26989;45.524;10.938;2023-04-15T11:18:15;8.27;;;3.10;;
41255;SDS011;26989;45.524;10.938;2023-04-15T11:20:49;3.75;;;3.00;;
41255;SDS011;26989;45.524;10.938;2023-04-15T11:23:28;3.72;;;2.42;;
41255;SDS011;26989;45.524;10.938;2023-04-15T11:25:59;7.03;;;3.67;;
41255;SDS011;26989;45.524;10.938;2023-04-15T11:28:32;5.97;;;3.70;;
41255;SDS011;26989;45.524;10.938;2023-04-15T11:31:04;4.20;;;3.28;;
41255;SDS011;26989;45.524;10.938;2023-04-15T11:33:32;4.43;;;3.53;;
41255;SDS011;26989;45.524;10.938;2023-04-15T11:35:59;5.95;;;3.17;;
41255;SDS011;26989;45.524;10.938;2023-04-15T11:38:27;4.95;;;3.20;;
41255;SDS011;26989;45.524;10.938;2023-04-15T11:40:54;5.05;;;3.70;;
41255;SDS011;26989;45.524;10.938;2023-04-15T11:43:21;4.45;;;3.30;;
41255;SDS011;26989;45.524;10.938;2023-04-15T11:45:50;8.02;;;3.50;;
41255;SDS011;26989;45.524;10.938;2023-04-15T11:50:52;3.05;;;2.80;;
41255;SDS011;26989;45.524;10.938;2023-04-15T11:53:20;7.65;;;3.80;;
41255;SDS011;26989;45.524;10.938;2023-04-15T11:55:52;6.82;;;3.45;;
41255;SDS011;26989;45.524;10.938;2023-04-15T11:58:20;7.88;;;3.50;;
41255;SDS011;26989;45.524;10.938;2023-04-15T12:00:52;6.13;;;3.92;;
41255;SDS011;26989;45.524;10.938;2023-04-15T12:03:50;7.57;;;3.85;;
41255;SDS011;26989;45.524;10.938;2023-04-15T12:06:18;5.30;;;3.58;;
41255;SDS011;26989;45.524;10.938;2023-04-15T12:08:56;5.50;;;3.55;;
41255;SDS011;26989;45.524;10.938;2023-04-15T12:13:52;6.03;;;3.10;;
41255;SDS011;26989;45.524;10.938;2023-04-15T12:16:45;6.70;;;2.45;;
41255;SDS011;26989;45.524;10.938;2023-04-15T12:19:24;5.93;;;2.60;;
41255;SDS011;26989;45.524;10.938;2023-04-15T12:21:58;3.05;;;2.17;;
41255;SDS011;26989;45.524;10.938;2023-04-15T12:24:32;5.47;;;2.75;;
41255;SDS011;26989;45.524;10.938;2023-04-15T12:27:04;2.85;;;2.38;;
41255;SDS011;26989;45.524;10.938;2023-04-15T12:29:33;6.88;;;2.28;;
41255;SDS011;26989;45.524;10.938;2023-04-15T12:32:11;3.17;;;2.15;;
41255;SDS011;26989;45.524;10.938;2023-04-15T12:34:43;2.58;;;2.00;;
41255;SDS011;26989;45.524;10.938;2023-04-15T12:37:17;6.25;;;2.30;;
41255;SDS011;26989;45.524;10.938;2023-04-15T12:39:45;2.83;;;1.83;;
41255;SDS011;26989;45.524;10.938;2023-04-15T12:42:14;2.97;;;1.73;;
41255;SDS011;26989;45.524;10.938;2023-04-15T12:44:42;2.63;;;1.80;;
41255;SDS011;26989;45.524;10.938;2023-04-15T12:47:09;3.38;;;1.63;;
41255;SDS011;26989;45.524;10.938;2023-04-15T12:49:37;4.80;;;2.00;;
41255;SDS011;26989;45.524;10.938;2023-04-15T12:52:05;3.78;;;1.83;;
41255;SDS011;26989;45.524;10.938;2023-04-15T12:54:32;3.90;;;2.10;;
41255;SDS011;26989;45.524;10.938;2023-04-15T12:57:00;4.45;;;2.45;;
41255;SDS011;26989;45.524;10.938;2023-04-15T12:59:32;2.92;;;2.10;;
41255;SDS011;26989;45.524;10.938;2023-04-15T13:01:59;7.32;;;2.72;;
41255;SDS011;26989;45.524;10.938;2023-04-15T13:04:26;5.45;;;2.38;;
41255;SDS011;26989;45.524;10.938;2023-04-15T13:06:56;3.70;;;2.72;;
41255;SDS011;26989;45.524;10.938;2023-04-15T13:09:23;3.33;;;2.72;;
41255;SDS011;26989;45.524;10.938;2023-04-15T13:11:50;7.18;;;4.25;;
41255;SDS011;26989;45.524;10.938;2023-04-15T13:14:18;4.13;;;2.67;;
41255;SDS011;26989;45.524;10.938;2023-04-15T13:16:45;5.13;;;2.58;;
41255;SDS011;26989;45.524;10.938;2023-04-15T13:19:11;3.90;;;2.20;;
41255;SDS011;26989;45.524;10.938;2023-04-15T13:21:39;2.65;;;1.83;;
41255;SDS011;26989;45.524;10.938;2023-04-15T13:24:06;2.10;;;1.80;;
41255;SDS011;26989;45.524;10.938;2023-04-15T13:26:33;3.72;;;1.80;;
41255;SDS011;26989;45.524;10.938;2023-04-15T13:29:00;2.50;;;1.90;;
41255;SDS011;26989;45.524;10.938;2023-04-15T13:31:27;2.17;;;1.92;;
41255;SDS011;26989;45.524;10.938;2023-04-15T13:33:55;2.83;;;1.98;;
41255;SDS011;26989;45.524;10.938;2023-04-15T13:36:22;2.47;;;1.98;;
41255;SDS011;26989;45.524;10.938;2023-04-15T13:38:49;5.32;;;2.33;;
41255;SDS011;26989;45.524;10.938;2023-04-15T13:41:16;3.13;;;2.10;;
41255;SDS011;26989;45.524;10.938;2023-04-15T13:43:44;4.55;;;2.50;;
41255;SDS011;26989;45.524;10.938;2023-04-15T13:46:10;5.05;;;2.42;;
41255;SDS011;26989;45.524;10.938;2023-04-15T13:48:37;3.83;;;2.10;;
41255;SDS011;26989;45.524;10.938;2023-04-15T13:51:05;4.03;;;2.50;;
41255;SDS011;26989;45.524;10.938;2023-04-15T13:53:32;3.72;;;2.30;;
41255;SDS011;26989;45.524;10.938;2023-04-15T13:56:08;4.05;;;1.58;;
41255;SDS011;26989;45.524;10.938;2023-04-15T13:58:36;1.98;;;1.52;;
41255;SDS011;26989;45.524;10.938;2023-04-15T14:01:03;2.35;;;1.80;;
41255;SDS011;26989;45.524;10.938;2023-04-15T14:03:33;2.10;;;1.60;;
41255;SDS011;26989;45.524;10.938;2023-04-15T14:06:02;4.78;;;2.25;;
41255;SDS011;26989;45.524;10.938;2023-04-15T14:08:29;5.45;;;1.75;;
41255;SDS011;26989;45.524;10.938;2023-04-15T14:10:56;2.95;;;1.63;;
41255;SDS011;26989;45.524;10.938;2023-04-15T14:13:23;3.35;;;1.83;;
41255;SDS011;26989;45.524;10.938;2023-04-15T14:15:50;11.25;;;3.72;;
41255;SDS011;26989;45.524;10.938;2023-04-15T14:18:17;2.45;;;1.48;;
41255;SDS011;26989;45.524;10.938;2023-04-15T14:20:44;4.55;;;1.90;;
41255;SDS011;26989;45.524;10.938;2023-04-15T14:23:11;4.50;;;1.70;;
41255;SDS011;26989;45.524;10.938;2023-04-15T14:25:38;4.35;;;1.83;;
41255;SDS011;26989;45.524;10.938;2023-04-15T14:28:05;4.45;;;1.90;;
41255;SDS011;26989;45.524;10.938;2023-04-15T14:30:32;5.82;;;1.90;;
41255;SDS011;26989;45.524;10.938;2023-04-15T14:32:59;4.53;;;2.08;;
41255;SDS011;26989;45.524;10.938;2023-04-15T14:35:26;3.47;;;1.95;;
41255;SDS011;26989;45.524;10.938;2023-04-15T14:37:53;4.90;;;1.60;;
41255;SDS011;26989;45.524;10.938;2023-04-15T14:40:21;4.05;;;1.60;;
41255;SDS011;26989;45.524;10.938;2023-04-15T14:42:48;2.65;;;1.48;;
41255;SDS011;26989;45.524;10.938;2023-04-15T14:45:15;4.80;;;1.67;;
41255;SDS011;26989;45.524;10.938;2023-04-15T14:47:42;2.88;;;2.10;;
41255;SDS011;26989;45.524;10.938;2023-04-15T14:50:10;3.42;;;1.70;;
41255;SDS011;26989;45.524;10.938;2023-04-15T14:52:37;2.42;;;1.65;;
41255;SDS011;26989;45.524;10.938;2023-04-15T14:55:08;4.38;;;1.42;;
41255;SDS011;26989;45.524;10.938;2023-04-15T14:57:36;5.88;;;1.90;;
41255;SDS011;26989;45.524;10.938;2023-04-15T15:00:03;4.60;;;2.28;;